Time;durP1;ratioP1;P1;durP2;ratioP2;P2;SDS_P1;SDS_P2;PMS_P1;PMS_P2;Temp;Humidity;BMP_temperature;BMP_pressure;BME280_temperature;BME280_humidity;BME280_pressure;Samples;Min_cycle;Max_cycle;Signal;HPM_P1;HPM_P2
2022/01/12 00:00:39;;;;;;;;;;;;;;;;;;5014023;28;1390;-75
2022/01/12 00:03:05;;;;;;;;;;;;;;;;;;5014113;28;1562;-76
2022/01/12 00:05:30;;;;;;;;;;;;;;;;;;4996603;28;847;-75
2022/01/12 00:07:55;;;;;;;;;;;;;;;;;;5015344;28;1540;-75
2022/01/12 00:10:20;;;;;;;;;;;;;;;;;;5015378;28;800;-75
2022/01/12 00:12:46;;;;;;;;;;;;;;;;;;5013470;28;1559;-75
2022/01/12 00:15:11;;;;;;;;;;;;;;;;;;5008927;28;1384;-75
2022/01/12 00:17:36;;;;;;;;;;;;;;;;;;5019754;28;1902;-75
2022/01/12 00:20:02;;;;;;;;;;;;;;;;;;5016193;28;1572;-75
2022/01/12 00:22:28;;;;;;;;;;;;;;;;;;5015282;28;1064;-75
2022/01/12 00:35:31;;;;;;;;;;;;;;;;;;5003844;28;1556;-75
2022/01/12 00:37:56;;;;;;;;;;;;;;;;;;5004859;28;1963;-75
2022/01/12 00:40:22;;;;;;;;;;;;;;;;;;5013580;28;1481;-75
2022/01/12 00:42:47;;;;;;;;;;;;;;;;;;5019732;28;1713;-75
2022/01/12 00:45:12;;;;;;;;;;;;;;;;;;5010238;28;1596;-75
2022/01/12 00:47:37;;;;;;;;;;;;;;;;;;5012514;28;1589;-75
2022/01/12 00:50:03;;;;;;;;;;;;;;;;;;5007963;28;1588;-76
2022/01/12 00:52:28;;;;;;;;;;;;;;;;;;5003555;28;1560;-75
2022/01/12 00:54:53;;;;;;;;;;;;;;;;;;4998030;28;1676;-75
2022/01/12 00:57:19;;;;;;;;;;;;;;;;;;4999169;28;1902;-75
2022/01/12 00:59:44;;;;;;;;;;;;;;;;;;4994298;28;1567;-75
2022/01/12 01:02:09;;;;;;;;;;;;;;;;;;5003225;28;1517;-75
2022/01/12 01:04:34;;;;;;;;;;;;;;;;;;5017892;28;1591;-76
2022/01/12 01:06:59;;;;;;;;;;;;;;;;;;4997615;28;1840;-75
2022/01/12 01:09:25;;;;;;;;;;;;;;;;;;4994984;28;1652;-75
2022/01/12 01:11:50;;;;;;;;;;;;;;;;;;5006389;28;1561;-75
2022/01/12 01:14:22;;;;;;;;;;;;;;;;;;4998180;28;1626;-75
2022/01/12 01:27:51;;;;;;;;;;;;;;;;;;5012810;28;1591;-75
2022/01/12 01:30:16;;;;;;;;;;;;;;;;;;5014990;28;1631;-75
2022/01/12 01:32:43;;;;;;;;;;;;;;;;;;5032637;28;826;-75
2022/01/12 01:35:08;;;;;;;;;;;;;;;;;;5012684;28;1706;-75
2022/01/12 01:37:33;;;;;;;;;;;;;;;;;;5012640;28;1894;-75
2022/01/12 01:39:59;;;;;;;;;;;;;;;;;;5010755;28;1701;-76
2022/01/12 01:42:38;;;;;;;;;;;;;;;;;;5008550;28;1965;-75
2022/01/12 01:53:22;;;;;;;;;;;;;;;;;;5013492;28;1512;-75
2022/01/12 01:55:47;;;;;;;;;;;;;;;;;;4995184;28;1588;-75
2022/01/12 01:58:14;;;;;;;;;;;;;;;;;;5012155;28;1906;-75
2022/01/12 02:00:40;;;;;;;;;;;;;;;;;;5013399;28;811;-75
2022/01/12 02:03:05;;;;;;;;;;;;;;;;;;5001462;28;1638;-75
2022/01/12 02:05:31;;;;;;;;;;;;;;;;;;5013030;28;1332;-75
2022/01/12 02:07:56;;;;;;;;;;;;;;;;;;5013773;28;1252;-75
2022/01/12 02:10:22;;;;;;;;;;;;;;;;;;4997853;28;1565;-76
2022/01/12 02:12:47;;;;;;;;;;;;;;;;;;5012962;28;1473;-75
2022/01/12 02:15:13;;;;;;;;;;;;;;;;;;5011803;28;1624;-75
2022/01/12 02:17:51;;;;;;;;;;;;;;;;;;5013286;28;1902;-75
2022/01/12 02:42:08;;;;;;;;;;;;;;;;;;5012605;28;692;-75
2022/01/12 02:55:31;;;;;;;;;;;;;;;;;;5012910;28;720;-75
2022/01/12 02:57:56;;;;;;;;;;;;;;;;;;5011655;28;1977;-75
2022/01/12 03:00:23;;;;;;;;;;;;;;;;;;5019742;28;1488;-75
2022/01/12 03:02:52;;;;;;;;;;;;;;;;;;5024683;28;1686;-75
2022/01/12 03:07:45;;;;;;;;;;;;;;;;;;5005019;28;1749;-75
2022/01/12 03:10:11;;;;;;;;;;;;;;;;;;5002061;28;1602;-74
2022/01/12 03:12:40;;;;;;;;;;;;;;;;;;5010590;28;1615;-75
2022/01/12 03:15:05;;;;;;;;;;;;;;;;;;4995240;28;1978;-74
2022/01/12 03:17:30;;;;;;;;;;;;;;;;;;5015900;28;1902;-75
2022/01/12 03:19:56;;;;;;;;;;;;;;;;;;5013764;28;1599;-75
2022/01/12 03:22:21;;;;;;;;;;;;;;;;;;5016221;28;1345;-74
2022/01/12 03:24:46;;;;;;;;;;;;;;;;;;5013544;28;1632;-75
2022/01/12 03:27:14;;;;;;;;;;;;;;;;;;5016327;28;1186;-75
2022/01/12 03:29:43;;;;;;;;;;;;;;;;;;5008563;28;1713;-75
2022/01/12 03:32:11;;;;;;;;;;;;;;;;;;5013988;28;1581;-74
2022/01/12 03:34:37;;;;;;;;;;;;;;;;;;5016956;28;1580;-74
2022/01/12 03:37:40;;;;;;;;;;;;;;;;;;5014600;28;1914;-75
2022/01/12 03:40:03;;;;;;;;;;;;;;;;;;4999952;28;1872;-74
2022/01/12 03:42:28;;;;;;;;;;;;;;;;;;5000595;28;1859;-74
2022/01/12 03:44:54;;;;;;;;;;;;;;;;;;5005901;28;1748;-74
2022/01/12 03:47:19;;;;;;;;;;;;;;;;;;5013646;28;1583;-74
2022/01/12 03:49:44;;;;;;;;;;;;;;;;;;4998506;28;1632;-74
2022/01/12 03:52:09;;;;;;;;;;;;;;;;;;4995973;28;1514;-75
2022/01/12 03:54:34;;;;;;;;;;;;;;;;;;5004390;28;1504;-75
2022/01/12 03:57:00;;;;;;;;;;;;;;;;;;5002784;28;1903;-74
2022/01/12 03:59:25;;;;;;;;;;;;;;;;;;4999280;28;1720;-75
2022/01/12 04:01:50;;;;;;;;;;;;;;;;;;5012968;28;1632;-74
2022/01/12 04:04:24;;;;;;;;;;;;;;;;;;5016564;28;1698;-74
2022/01/12 04:09:33;;;;;;;;;;;;;;;;;;4995401;28;1627;-75
2022/01/12 04:11:58;;;;;;;;;;;;;;;;;;5012628;28;1699;-75
2022/01/12 04:14:23;;;;;;;;;;;;;;;;;;5012584;28;1557;-74
2022/01/12 04:16:48;;;;;;;;;;;;;;;;;;5010032;28;1568;-74
2022/01/12 04:19:13;;;;;;;;;;;;;;;;;;5019967;28;1898;-74
2022/01/12 04:21:46;;;;;;;;;;;;;;;;;;5002142;28;1832;-75
2022/01/12 04:24:13;;;;;;;;;;;;;;;;;;5013780;28;1654;-74
2022/01/12 04:26:38;;;;;;;;;;;;;;;;;;5012932;28;1663;-75
2022/01/12 04:29:04;;;;;;;;;;;;;;;;;;5005829;28;1636;-74
2022/01/12 04:31:29;;;;;;;;;;;;;;;;;;4996271;28;1570;-74
2022/01/12 04:33:54;;;;;;;;;;;;;;;;;;5018817;28;1592;-75
2022/01/12 04:36:19;;;;;;;;;;;;;;;;;;5012143;28;1573;-74
2022/01/12 04:38:45;;;;;;;;;;;;;;;;;;5007436;28;1966;-75
2022/01/12 04:41:10;;;;;;;;;;;;;;;;;;5002642;28;1656;-75
2022/01/12 04:43:36;;;;;;;;;;;;;;;;;;5008248;28;1516;-75
2022/01/12 04:48:37;;;;;;;;;;;;;;;;;;5013595;28;1634;-74
2022/01/12 04:51:02;;;;;;;;;;;;;;;;;;4986780;28;1594;-75
2022/01/12 04:53:27;;;;;;;;;;;;;;;;;;5007489;28;1589;-74
2022/01/12 04:55:53;;;;;;;;;;;;;;;;;;5011251;28;1603;-75
2022/01/12 04:58:18;;;;;;;;;;;;;;;;;;4991848;28;1910;-75
2022/01/12 05:00:45;;;;;;;;;;;;;;;;;;4995018;28;835;-74
2022/01/12 05:13:52;;;;;;;;;;;;;;;;;;4999476;28;1629;-75
2022/01/12 05:16:17;;;;;;;;;;;;;;;;;;5010191;28;1144;-75
2022/01/12 05:18:43;;;;;;;;;;;;;;;;;;4999565;28;1902;-75
2022/01/12 05:21:08;;;;;;;;;;;;;;;;;;5012718;28;1504;-75
2022/01/12 05:23:34;;;;;;;;;;;;;;;;;;5009834;28;1643;-75
2022/01/12 05:25:59;;;;;;;;;;;;;;;;;;5006670;28;1517;-75
2022/01/12 05:28:25;;;;;;;;;;;;;;;;;;5012838;28;1173;-75
2022/01/12 05:30:50;;;;;;;;;;;;;;;;;;4995817;28;1611;-75
2022/01/12 05:33:16;;;;;;;;;;;;;;;;;;5000451;28;1494;-75
2022/01/12 05:35:42;;;;;;;;;;;;;;;;;;5000424;28;1517;-75
2022/01/12 05:38:12;;;;;;;;;;;;;;;;;;4997363;28;1918;-75
2022/01/12 05:40:37;;;;;;;;;;;;;;;;;;5007656;28;1645;-75
2022/01/12 05:43:03;;;;;;;;;;;;;;;;;;5001052;28;1572;-75
2022/01/12 05:45:28;;;;;;;;;;;;;;;;;;5013820;28;842;-75
2022/01/12 05:50:20;;;;;;;;;;;;;;;;;;5008714;28;1527;-75
2022/01/12 05:52:45;;;;;;;;;;;;;;;;;;4995882;28;1506;-75
2022/01/12 05:55:10;;;;;;;;;;;;;;;;;;5012870;28;1500;-75
2022/01/12 05:57:36;;;;;;;;;;;;;;;;;;5012126;28;1906;-75
2022/01/12 06:00:02;;;;;;;;;;;;;;;;;;4993540;28;1539;-75
2022/01/12 06:02:28;;;;;;;;;;;;;;;;;;5008537;28;1588;-74
2022/01/12 06:04:53;;;;;;;;;;;;;;;;;;5024169;28;1765;-75
2022/01/12 06:07:18;;;;;;;;;;;;;;;;;;5010657;28;1590;-75
2022/01/12 06:09:43;;;;;;;;;;;;;;;;;;4994458;28;1865;-75
2022/01/12 06:12:09;;;;;;;;;;;;;;;;;;5010140;28;1600;-77
2022/01/12 06:14:34;;;;;;;;;;;;;;;;;;4994285;28;1589;-75
2022/01/12 06:16:59;;;;;;;;;;;;;;;;;;5016746;28;1564;-75
2022/01/12 06:19:24;;;;;;;;;;;;;;;;;;5016477;28;1898;-74
2022/01/12 06:21:50;;;;;;;;;;;;;;;;;;5013284;28;1231;-75
2022/01/12 06:24:15;;;;;;;;;;;;;;;;;;5010494;28;1570;-75
2022/01/12 06:26:42;;;;;;;;;;;;;;;;;;5013261;28;1472;-75
2022/01/12 06:31:38;;;;;;;;;;;;;;;;;;5020079;28;1506;-75
2022/01/12 06:34:03;;;;;;;;;;;;;;;;;;5028879;28;1576;-75
2022/01/12 06:36:28;;;;;;;;;;;;;;;;;;5013119;28;1197;-74
2022/01/12 06:38:53;;;;;;;;;;;;;;;;;;5012831;28;1898;-74
2022/01/12 06:41:19;;;;;;;;;;;;;;;;;;5009964;28;1570;-75
2022/01/12 06:43:44;;;;;;;;;;;;;;;;;;5012631;28;1445;-74
2022/01/12 06:46:09;;;;;;;;;;;;;;;;;;5004029;28;1569;-75
2022/01/12 06:48:35;;;;;;;;;;;;;;;;;;5027272;28;2516;-75
2022/01/12 06:51:00;;;;;;;;;;;;;;;;;;5007797;28;1573;-74
2022/01/12 06:53:25;;;;;;;;;;;;;;;;;;4996154;28;910;-74
2022/01/12 06:55:50;;;;;;;;;;;;;;;;;;5008284;28;1583;-74
2022/01/12 06:58:15;;;;;;;;;;;;;;;;;;5015239;28;1898;-74
2022/01/12 07:00:41;;;;;;;;;;;;;;;;;;5015669;28;1135;-74
2022/01/12 07:03:06;;;;;;;;;;;;;;;;;;5016402;28;1619;-75
2022/01/12 07:05:31;;;;;;;;;;;;;;;;;;5015644;28;874;-75
2022/01/12 07:07:56;;;;;;;;;;;;;;;;;;5014246;28;1568;-75
2022/01/12 07:10:22;;;;;;;;;;;;;;;;;;5016139;28;1451;-75
2022/01/12 07:12:47;;;;;;;;;;;;;;;;;;5021974;28;1639;-75
2022/01/12 07:15:12;;;;;;;;;;;;;;;;;;5016105;28;1954;-75
2022/01/12 07:17:37;;;;;;;;;;;;;;;;;;5029561;28;1977;-75
2022/01/12 07:20:03;;;;;;;;;;;;;;;;;;5014234;28;1604;-74
2022/01/12 07:22:29;;;;;;;;;;;;;;;;;;5015657;28;1564;-75
2022/01/12 07:24:55;;;;;;;;;;;;;;;;;;5014132;28;1505;-74
2022/01/12 07:27:20;;;;;;;;;;;;;;;;;;5013392;28;1627;-75
2022/01/12 07:29:45;;;;;;;;;;;;;;;;;;5013987;28;1615;-75
2022/01/12 07:32:10;;;;;;;;;;;;;;;;;;5012588;28;1640;-75
2022/01/12 07:34:35;;;;;;;;;;;;;;;;;;5012557;28;1659;-75
2022/01/12 07:37:00;;;;;;;;;;;;;;;;;;5010810;28;1632;-75
2022/01/12 07:39:26;;;;;;;;;;;;;;;;;;5013875;28;1960;-75
2022/01/12 07:41:51;;;;;;;;;;;;;;;;;;5011629;28;1710;-75
2022/01/12 07:44:16;;;;;;;;;;;;;;;;;;4991714;28;1204;-75
2022/01/12 07:46:42;;;;;;;;;;;;;;;;;;4999950;28;1401;-76
2022/01/12 07:49:07;;;;;;;;;;;;;;;;;;5014172;28;1528;-76
2022/01/12 07:51:35;;;;;;;;;;;;;;;;;;5014200;28;1492;-75
2022/01/12 07:54:00;;;;;;;;;;;;;;;;;;5013523;28;1627;-75
2022/01/12 07:56:25;;;;;;;;;;;;;;;;;;5015219;28;1396;-76
2022/01/12 07:58:50;;;;;;;;;;;;;;;;;;5013885;28;1902;-75
2022/01/12 08:01:15;;;;;;;;;;;;;;;;;;5007375;28;1231;-75
2022/01/12 08:03:41;;;;;;;;;;;;;;;;;;5012542;28;1580;-75
2022/01/12 08:06:06;;;;;;;;;;;;;;;;;;5013370;28;1606;-75
2022/01/12 08:08:33;;;;;;;;;;;;;;;;;;5014833;28;1283;-75
2022/01/12 08:10:58;;;;;;;;;;;;;;;;;;5011525;28;1536;-75
2022/01/12 08:13:23;;;;;;;;;;;;;;;;;;4997337;28;1259;-75
2022/01/12 08:15:48;;;;;;;;;;;;;;;;;;5015388;28;1512;-75
2022/01/12 08:18:14;;;;;;;;;;;;;;;;;;5007434;28;1894;-75
2022/01/12 08:20:41;;;;;;;;;;;;;;;;;;5013153;28;1283;-75
2022/01/12 08:23:06;;;;;;;;;;;;;;;;;;5009936;28;1644;-75
2022/01/12 08:25:31;;;;;;;;;;;;;;;;;;5014613;28;1239;-76
2022/01/12 08:27:56;;;;;;;;;;;;;;;;;;5012354;28;1521;-75
2022/01/12 08:30:29;;;;;;;;;;;;;;;;;;5012965;28;1260;-76
2022/01/12 08:32:55;;;;;;;;;;;;;;;;;;5018099;28;1633;-75
2022/01/12 08:35:20;;;;;;;;;;;;;;;;;;5005284;28;1644;-75
2022/01/12 08:37:46;;;;;;;;;;;;;;;;;;4996246;28;2749;-75
2022/01/12 08:40:12;;;;;;;;;;;;;;;;;;5007755;28;1632;-75
2022/01/12 08:42:37;;;;;;;;;;;;;;;;;;5004052;28;1608;-75
2022/01/12 08:45:03;;;;;;;;;;;;;;;;;;5004421;28;1697;-75
2022/01/12 08:47:28;;;;;;;;;;;;;;;;;;5009016;28;1651;-75
2022/01/12 08:49:54;;;;;;;;;;;;;;;;;;4988804;28;1607;-75
2022/01/12 08:52:19;;;;;;;;;;;;;;;;;;5002674;28;1870;-76
2022/01/12 08:54:44;;;;;;;;;;;;;;;;;;5004528;28;1612;-75
2022/01/12 08:57:09;;;;;;;;;;;;;;;;;;5003836;28;1969;-75
2022/01/12 08:59:35;;;;;;;;;;;;;;;;;;5007801;28;1634;-75
2022/01/12 09:02:00;;;;;;;;;;;;;;;;;;5005174;28;1668;-75
2022/01/12 09:04:27;;;;;;;;;;;;;;;;;;5003326;28;1731;-75
2022/01/12 09:06:52;;;;;;;;;;;;;;;;;;5005181;28;1571;-76
2022/01/12 09:09:17;;;;;;;;;;;;;;;;;;5003810;28;1730;-75
2022/01/12 09:11:42;;;;;;;;;;;;;;;;;;5002613;28;1647;-75
2022/01/12 09:14:07;;;;;;;;;;;;;;;;;;5003923;28;1699;-75
2022/01/12 09:16:34;;;;;;;;;;;;;;;;;;5008305;28;1574;-75
2022/01/12 09:18:59;;;;;;;;;;;;;;;;;;5005587;28;1961;-75
2022/01/12 09:21:24;;;;;;;;;;;;;;;;;;5008017;28;1445;-75
2022/01/12 09:23:49;;;;;;;;;;;;;;;;;;5005588;28;1603;-75
2022/01/12 09:26:15;;;;;;;;;;;;;;;;;;5003952;28;1317;-75
2022/01/12 09:28:40;;;;;;;;;;;;;;;;;;5003734;28;1736;-75
2022/01/12 09:31:05;;;;;;;;;;;;;;;;;;5007649;28;1346;-75
2022/01/12 09:33:36;;;;;;;;;;;;;;;;;;5097600;27;1545;-74
2022/01/12 09:36:02;;;;;;;;;;;;;;;;;;5098410;28;1310;-74
2022/01/12 09:38:27;;;;;;;;;;;;;;;;;;5090546;28;1542;-74
2022/01/12 09:40:52;;;;;;;;;;;;;;;;;;5097261;28;1261;-76
2022/01/12 09:43:18;;;;;;;;;;;;;;;;;;5097991;28;1470;-76
2022/01/12 09:45:49;;;;;;;;;;;;;;;;;;5094740;28;1549;-76
2022/01/12 09:48:14;;;;;;;;;;;;;;;;;;5090773;28;1604;-77
2022/01/12 09:50:39;;;;;;;;;;;;;;;;;;5086555;28;1662;-76
2022/01/12 09:53:05;;;;;;;;;;;;;;;;;;5089703;28;1976;-76
2022/01/12 09:55:30;;;;;;;;;;;;;;;;;;5091207;28;1620;-77
2022/01/12 09:57:55;;;;;;;;;;;;;;;;;;5097691;28;1374;-76
2022/01/12 10:00:25;;;;;;;;;;;;;;;;;;5091537;28;1746;-77
2022/01/12 10:02:50;;;;;;;;;;;;;;;;;;5093147;28;1728;-77
2022/01/12 10:05:16;;;;;;;;;;;;;;;;;;5091499;28;1662;-76
2022/01/12 10:07:41;;;;;;;;;;;;;;;;;;5096218;28;1692;-76
2022/01/12 10:10:07;;;;;;;;;;;;;;;;;;5091792;28;1601;-76
2022/01/12 10:12:33;;;;;;;;;;;;;;;;;;5096699;28;1910;-77
2022/01/12 10:15:00;;;;;;;;;;;;;;;;;;5094532;28;1625;-76
2022/01/12 10:17:36;;;;;;;;;;;;;;;;;;5095180;28;1502;-77
2022/01/12 10:20:05;;;;;;;;;;;;;;;;;;5094454;28;1391;-76
2022/01/12 10:22:30;;;;;;;;;;;;;;;;;;5082759;28;1625;-76
2022/01/12 10:24:55;;;;;;;;;;;;;;;;;;5095264;28;1611;-76
2022/01/12 10:27:21;;;;;;;;;;;;;;;;;;5074822;28;1725;-76
2022/01/12 10:29:55;;;;;;;;;;;;;;;;;;5095733;28;1586;-76
2022/01/12 10:32:20;;;;;;;;;;;;;;;;;;5101948;28;1925;-76
2022/01/12 10:34:46;;;;;;;;;;;;;;;;;;5110540;28;1775;-76
2022/01/12 10:37:16;;;;;;;;;;;;;;;;;;5110806;28;1667;-76
2022/01/12 10:39:43;;;;;;;;;;;;;;;;;;5110124;28;1516;-77
2022/01/12 10:42:09;;;;;;;;;;;;;;;;;;5113655;28;1528;-76
2022/01/12 10:44:42;;;;;;;;;;;;;;;;;;5101043;28;1542;-75
2022/01/12 10:47:10;;;;;;;;;;;;;;;;;;5092738;28;1848;-75
2022/01/12 10:49:37;;;;;;;;;;;;;;;;;;5100015;28;1662;-76
2022/01/12 10:52:02;;;;;;;;;;;;;;;;;;5097090;28;1961;-75
2022/01/12 10:54:28;;;;;;;;;;;;;;;;;;5096071;28;1697;-76
2022/01/12 10:56:53;;;;;;;;;;;;;;;;;;5098641;28;1420;-75
2022/01/12 10:59:19;;;;;;;;;;;;;;;;;;5099577;28;1913;-75
2022/01/12 11:01:44;;;;;;;;;;;;;;;;;;5099346;28;1791;-75
2022/01/12 11:04:09;;;;;;;;;;;;;;;;;;5097005;28;1685;-75
2022/01/12 11:06:35;;;;;;;;;;;;;;;;;;5098061;28;1634;-75
2022/01/12 11:09:00;;;;;;;;;;;;;;;;;;5098496;28;1568;-75
2022/01/12 11:11:28;;;;;;;;;;;;;;;;;;5097685;28;1905;-75
2022/01/12 11:13:54;;;;;;;;;;;;;;;;;;5097300;28;1673;-75
2022/01/12 11:16:20;;;;;;;;;;;;;;;;;;5101395;28;1636;-75
2022/01/12 11:18:46;;;;;;;;;;;;;;;;;;5095335;28;1694;-75
2022/01/12 11:21:31;;;;;;;;;;;;;;;;;;5099002;28;1733;-75
2022/01/12 11:23:58;;;;;;;;;;;;;;;;;;5096946;28;1900;-75
2022/01/12 11:26:24;;;;;;;;;;;;;;;;;;5098348;28;1579;-75
2022/01/12 11:28:51;;;;;;;;;;;;;;;;;;5099040;28;1626;-75
2022/01/12 11:31:18;;;;;;;;;;;;;;;;;;5101991;28;1897;-75
2022/01/12 11:33:44;;;;;;;;;;;;;;;;;;5096597;28;1638;-75
2022/01/12 11:36:12;;;;;;;;;;;;;;;;;;5100483;28;1410;-75
2022/01/12 11:38:38;;;;;;;;;;;;;;;;;;5102257;28;1816;-75
2022/01/12 11:41:17;;;;;;;;;;;;;;;;;;5098045;28;1614;-75
2022/01/12 11:43:46;;;;;;;;;;;;;;;;;;5096962;28;1686;-75
2022/01/12 11:46:16;;;;;;;;;;;;;;;;;;5102870;28;1816;-75
2022/01/12 11:48:41;;;;;;;;;;;;;;;;;;5100938;28;1261;-75
2022/01/12 11:51:06;;;;;;;;;;;;;;;;;;5098693;28;1717;-74
2022/01/12 11:53:42;;;;;;;;;;;;;;;;;;5102800;28;1910;-75
2022/01/12 11:56:11;;;;;;;;;;;;;;;;;;5099055;28;1578;-75
2022/01/12 11:58:37;;;;;;;;;;;;;;;;;;5096018;28;1703;-75
2022/01/12 12:01:13;;;;;;;;;;;;;;;;;;5097063;28;1635;-75
2022/01/12 12:03:38;;;;;;;;;;;;;;;;;;5100551;28;1589;-75
2022/01/12 12:06:03;;;;;;;;;;;;;;;;;;5098472;28;1636;-75
2022/01/12 12:08:28;;;;;;;;;;;;;;;;;;5103369;28;1334;-75
2022/01/12 12:10:54;;;;;;;;;;;;;;;;;;5102213;28;1713;-75
2022/01/12 12:13:20;;;;;;;;;;;;;;;;;;5100300;28;1909;-74
2022/01/12 12:15:45;;;;;;;;;;;;;;;;;;5097935;28;1404;-75
2022/01/12 12:18:11;;;;;;;;;;;;;;;;;;5094235;28;1625;-75
2022/01/12 12:20:37;;;;;;;;;;;;;;;;;;5099758;28;1323;-74
2022/01/12 12:23:02;;;;;;;;;;;;;;;;;;5098938;28;1588;-74
2022/01/12 12:25:28;;;;;;;;;;;;;;;;;;5100616;28;1376;-75
2022/01/12 12:27:54;;;;;;;;;;;;;;;;;;5098672;28;1533;-75
2022/01/12 12:30:20;;;;;;;;;;;;;;;;;;5097107;28;1437;-76
2022/01/12 12:32:46;;;;;;;;;;;;;;;;;;5099441;28;1937;-76
2022/01/12 12:35:15;;;;;;;;;;;;;;;;;;5101162;28;1276;-76
2022/01/12 12:38:01;;;;;;;;;;;;;;;;;;5096115;28;1760;-77
2022/01/12 12:40:30;;;;;;;;;;;;;;;;;;5097594;28;1515;-75
2022/01/12 12:43:20;;;;;;;;;;;;;;;;;;5095960;28;1635;-76
2022/01/12 12:45:45;;;;;;;;;;;;;;;;;;5098288;28;1568;-76
2022/01/12 12:48:12;;;;;;;;;;;;;;;;;;5093722;28;1633;-76
2022/01/12 12:50:37;;;;;;;;;;;;;;;;;;5096773;28;1470;-76
2022/01/12 12:53:02;;;;;;;;;;;;;;;;;;5100453;28;1955;-76
2022/01/12 12:55:33;;;;;;;;;;;;;;;;;;5082959;28;1581;-76
2022/01/12 12:57:58;;;;;;;;;;;;;;;;;;5095339;28;1655;-76
2022/01/12 13:00:24;;;;;;;;;;;;;;;;;;5096794;28;1568;-77
2022/01/12 13:02:50;;;;;;;;;;;;;;;;;;5095571;28;1782;-76
2022/01/12 13:05:17;;;;;;;;;;;;;;;;;;5098181;28;1587;-77
2022/01/12 13:07:43;;;;;;;;;;;;;;;;;;5102805;28;1369;-77
2022/01/12 13:10:11;;;;;;;;;;;;;;;;;;5096166;28;1584;-77
2022/01/12 13:12:39;;;;;;;;;;;;;;;;;;5100624;28;1957;-77
2022/01/12 13:15:07;;;;;;;;;;;;;;;;;;5099103;28;1543;-77
2022/01/12 13:17:33;;;;;;;;;;;;;;;;;;5099798;28;1711;-76
2022/01/12 13:22:33;;;;;;;;;;;;;;;;;;5099375;28;1674;-77
2022/01/12 13:24:59;;;;;;;;;;;;;;;;;;5102519;28;1327;-76
2022/01/12 13:27:24;;;;;;;;;;;;;;;;;;5098097;28;1533;-77
2022/01/12 13:29:50;;;;;;;;;;;;;;;;;;5099365;28;1849;-77
2022/01/12 13:32:16;;;;;;;;;;;;;;;;;;5094336;28;2008;-76
2022/01/12 13:34:44;;;;;;;;;;;;;;;;;;5098175;28;1573;-77
2022/01/12 13:37:13;;;;;;;;;;;;;;;;;;5101990;28;1564;-77
2022/01/12 13:39:38;;;;;;;;;;;;;;;;;;5092950;28;1584;-76
2022/01/12 13:42:03;;;;;;;;;;;;;;;;;;5102171;28;1977;-76
2022/01/12 13:44:28;;;;;;;;;;;;;;;;;;5101571;28;1232;-77
2022/01/12 13:47:09;;;;;;;;;;;;;;;;;;5093425;28;1712;-77
2022/01/12 13:49:35;;;;;;;;;;;;;;;;;;5094770;28;1430;-76
2022/01/12 13:52:02;;;;;;;;;;;;;;;;;;5094868;28;1998;-76
2022/01/12 13:54:29;;;;;;;;;;;;;;;;;;5099443;28;1323;-76
2022/01/12 13:56:54;;;;;;;;;;;;;;;;;;5099436;28;1634;-76
2022/01/12 13:59:20;;;;;;;;;;;;;;;;;;5101001;28;1386;-77
2022/01/12 14:01:46;;;;;;;;;;;;;;;;;;5098557;28;1779;-76
2022/01/12 14:04:19;;;;;;;;;;;;;;;;;;5096146;28;1733;-76
2022/01/12 14:06:47;;;;;;;;;;;;;;;;;;5098879;28;1699;-76
2022/01/12 14:09:49;;;;;;;;;;;;;;;;;;5100182;28;1279;-77
2022/01/12 14:12:11;;;;;;;;;;;;;;;;;;5093540;28;1957;-77
2022/01/12 14:14:46;;;;;;;;;;;;;;;;;;5095130;28;1627;-76
2022/01/12 14:17:29;;;;;;;;;;;;;;;;;;5095622;28;1470;-77
2022/01/12 14:19:55;;;;;;;;;;;;;;;;;;5093346;28;1820;-76
2022/01/12 14:22:20;;;;;;;;;;;;;;;;;;5081334;28;1580;-76
2022/01/12 14:24:56;;;;;;;;;;;;;;;;;;5102234;28;1627;-80
2022/01/12 14:27:21;;;;;;;;;;;;;;;;;;5092604;28;1589;-79
2022/01/12 14:29:46;;;;;;;;;;;;;;;;;;5100806;28;1610;-77
2022/01/12 14:32:11;;;;;;;;;;;;;;;;;;5094364;28;1906;-76
2022/01/12 14:34:37;;;;;;;;;;;;;;;;;;5100813;28;1587;-76
2022/01/12 14:37:02;;;;;;;;;;;;;;;;;;5097597;28;1635;-77
2022/01/12 14:39:27;;;;;;;;;;;;;;;;;;5101098;28;1587;-77
2022/01/12 14:41:55;;;;;;;;;;;;;;;;;;5100496;28;1560;-77
2022/01/12 14:44:24;;;;;;;;;;;;;;;;;;5095469;28;1658;-76
2022/01/12 14:46:49;;;;;;;;;;;;;;;;;;5092417;28;1629;-76
2022/01/12 14:49:14;;;;;;;;;;;;;;;;;;5094548;28;1648;-77
2022/01/12 14:51:40;;;;;;;;;;;;;;;;;;5103903;28;1910;-77
2022/01/12 14:54:05;;;;;;;;;;;;;;;;;;5099878;28;1386;-77
2022/01/12 14:56:30;;;;;;;;;;;;;;;;;;5098858;28;1670;-77
2022/01/12 14:58:55;;;;;;;;;;;;;;;;;;5100206;28;1399;-77
2022/01/12 15:01:20;;;;;;;;;;;;;;;;;;5098216;28;1556;-79
2022/01/12 15:03:46;;;;;;;;;;;;;;;;;;5101394;28;1494;-79
2022/01/12 15:06:11;;;;;;;;;;;;;;;;;;5104720;28;1250;-78
2022/01/12 15:08:36;;;;;;;;;;;;;;;;;;5100271;28;1498;-79
2022/01/12 15:11:01;;;;;;;;;;;;;;;;;;5104851;28;1234;-79
2022/01/12 15:13:39;;;;;;;;;;;;;;;;;;5098244;28;1902;-79
2022/01/12 15:16:04;;;;;;;;;;;;;;;;;;5100418;28;1431;-79
2022/01/12 15:18:30;;;;;;;;;;;;;;;;;;5101011;28;1763;-78
2022/01/12 15:20:55;;;;;;;;;;;;;;;;;;5105166;28;1498;-79
2022/01/12 15:23:20;;;;;;;;;;;;;;;;;;5085070;28;1261;-78
2022/01/12 15:25:46;;;;;;;;;;;;;;;;;;5101531;28;1529;-77
2022/01/12 15:28:11;;;;;;;;;;;;;;;;;;5102437;28;1357;-77
2022/01/12 15:30:37;;;;;;;;;;;;;;;;;;5077243;28;1606;-78
2022/01/12 15:33:03;;;;;;;;;;;;;;;;;;5101758;28;1913;-78
2022/01/12 15:35:28;;;;;;;;;;;;;;;;;;5103980;28;1299;-78
2022/01/12 15:37:54;;;;;;;;;;;;;;;;;;5098875;28;1769;-78
2022/01/12 15:40:19;;;;;;;;;;;;;;;;;;5100427;28;1390;-78
2022/01/12 15:42:44;;;;;;;;;;;;;;;;;;5099981;28;1576;-78
2022/01/12 15:45:09;;;;;;;;;;;;;;;;;;5099123;28;1389;-78
2022/01/12 15:47:35;;;;;;;;;;;;;;;;;;5100510;28;1584;-78
2022/01/12 15:50:00;;;;;;;;;;;;;;;;;;5102489;28;1336;-78
2022/01/12 15:52:25;;;;;;;;;;;;;;;;;;5098796;28;1906;-77
2022/01/12 15:54:50;;;;;;;;;;;;;;;;;;5100100;28;1666;-77
2022/01/12 15:57:16;;;;;;;;;;;;;;;;;;5102435;28;1271;-77
2022/01/12 15:59:42;;;;;;;;;;;;;;;;;;5099901;28;1725;-78
2022/01/12 16:02:08;;;;;;;;;;;;;;;;;;5095559;28;1592;-78
2022/01/12 16:04:33;;;;;;;;;;;;;;;;;;5100591;28;1618;-78
2022/01/12 16:06:58;;;;;;;;;;;;;;;;;;5098676;28;1615;-77
2022/01/12 16:09:23;;;;;;;;;;;;;;;;;;5100325;28;1515;-78
2022/01/12 16:11:51;;;;;;;;;;;;;;;;;;5100172;28;1965;-77
2022/01/12 16:14:17;;;;;;;;;;;;;;;;;;5099097;28;1466;-77
2022/01/12 16:16:43;;;;;;;;;;;;;;;;;;5094153;28;1603;-77
2022/01/12 16:19:08;;;;;;;;;;;;;;;;;;5100744;28;1552;-77
2022/01/12 16:21:39;;;;;;;;;;;;;;;;;;5101301;28;1245;-77
2022/01/12 16:24:05;;;;;;;;;;;;;;;;;;5098157;28;1644;-77
2022/01/12 16:26:30;;;;;;;;;;;;;;;;;;5100158;28;1270;-77
2022/01/12 16:28:56;;;;;;;;;;;;;;;;;;5099361;28;1532;-77
2022/01/12 16:31:23;;;;;;;;;;;;;;;;;;5101288;28;1378;-77
2022/01/12 16:33:48;;;;;;;;;;;;;;;;;;5099759;28;1901;-77
2022/01/12 16:36:13;;;;;;;;;;;;;;;;;;5103234;28;1255;-78
2022/01/12 16:38:39;;;;;;;;;;;;;;;;;;5080523;28;1601;-76
2022/01/12 16:41:04;;;;;;;;;;;;;;;;;;5101685;28;1302;-77
2022/01/12 16:43:29;;;;;;;;;;;;;;;;;;5098472;28;1650;-76
2022/01/12 16:45:54;;;;;;;;;;;;;;;;;;5099661;28;1419;-76
2022/01/12 16:48:20;;;;;;;;;;;;;;;;;;5100638;28;1416;-75
2022/01/12 16:50:45;;;;;;;;;;;;;;;;;;5097254;28;1657;-74
2022/01/12 16:53:10;;;;;;;;;;;;;;;;;;5091996;28;1902;-74
2022/01/12 16:55:36;;;;;;;;;;;;;;;;;;5094550;28;1690;-75
2022/01/12 16:58:02;;;;;;;;;;;;;;;;;;5098030;28;2018;-74
2022/01/12 17:00:29;;;;;;;;;;;;;;;;;;5100238;28;1747;-74
2022/01/12 17:02:54;;;;;;;;;;;;;;;;;;5099097;28;1435;-75
2022/01/12 17:05:19;;;;;;;;;;;;;;;;;;5097223;28;1654;-74
2022/01/12 17:07:44;;;;;;;;;;;;;;;;;;5102548;28;1756;-74
2022/01/12 17:10:10;;;;;;;;;;;;;;;;;;5100118;28;1678;-74
2022/01/12 17:12:35;;;;;;;;;;;;;;;;;;5097854;28;1902;-74
2022/01/12 17:15:19;;;;;;;;;;;;;;;;;;5101278;28;1410;-74
2022/01/12 17:17:44;;;;;;;;;;;;;;;;;;5097474;28;1720;-74
2022/01/12 17:20:09;;;;;;;;;;;;;;;;;;5096919;28;1519;-74
2022/01/12 17:22:35;;;;;;;;;;;;;;;;;;5097823;28;1634;-74
2022/01/12 17:25:06;;;;;;;;;;;;;;;;;;5097414;28;1834;-74
2022/01/12 17:27:31;;;;;;;;;;;;;;;;;;5096063;28;1694;-74
2022/01/12 17:29:57;;;;;;;;;;;;;;;;;;5090881;28;1693;-74
2022/01/12 17:32:22;;;;;;;;;;;;;;;;;;5080345;28;1966;-73
2022/01/12 17:34:47;;;;;;;;;;;;;;;;;;5076501;28;1758;-74
2022/01/12 17:37:14;;;;;;;;;;;;;;;;;;5078619;28;1819;-74
2022/01/12 17:39:43;;;;;;;;;;;;;;;;;;5083856;28;1624;-74
2022/01/12 17:42:10;;;;;;;;;;;;;;;;;;5086698;28;1643;-75
2022/01/12 17:44:36;;;;;;;;;;;;;;;;;;5082834;28;1606;-75
2022/01/12 17:47:03;;;;;;;;;;;;;;;;;;5086105;28;1687;-76
2022/01/12 17:49:44;;;;;;;;;;;;;;;;;;5092473;28;806;-74
2022/01/12 17:52:09;;;;;;;;;;;;;;;;;;5077537;28;1906;-75
2022/01/12 17:54:34;;;;;;;;;;;;;;;;;;5085763;28;1611;-74
2022/01/12 17:57:00;;;;;;;;;;;;;;;;;;5084727;28;1734;-75
2022/01/12 17:59:25;;;;;;;;;;;;;;;;;;5075496;28;1785;-75
2022/01/12 18:01:50;;;;;;;;;;;;;;;;;;5076377;28;877;-75
2022/01/12 18:04:15;;;;;;;;;;;;;;;;;;5075803;28;1718;-75
2022/01/12 18:06:40;;;;;;;;;;;;;;;;;;5087795;28;1591;-75
2022/01/12 18:09:07;;;;;;;;;;;;;;;;;;5078250;28;1727;-74
2022/01/12 18:11:32;;;;;;;;;;;;;;;;;;5084757;28;1969;-74
2022/01/12 18:13:57;;;;;;;;;;;;;;;;;;5075231;28;858;-74
2022/01/12 18:16:25;;;;;;;;;;;;;;;;;;5083820;28;1753;-74
2022/01/12 18:18:53;;;;;;;;;;;;;;;;;;5088508;28;1810;-74
2022/01/12 18:21:23;;;;;;;;;;;;;;;;;;5086393;28;1598;-74
2022/01/12 18:23:48;;;;;;;;;;;;;;;;;;5084269;28;1388;-73
2022/01/12 18:26:14;;;;;;;;;;;;;;;;;;5078122;28;1769;-74